Time;durP1;ratioP1;P1;durP2;ratioP2;P2;SDS_P1;SDS_P2;PMS_P1;PMS_P2;Temp;Humidity;BMP_temperature;BMP_pressure;BME280_temperature;BME280_humidity;BME280_pressure;Samples;Min_cycle;Max_cycle;Signal;HPM_P1;HPM_P2
2023/04/22 00:01:27;;;;;;;0.40;0.40;;;;;;;12.86;61.72;100246.75;6366092;23;20017;-82
2023/04/22 00:03:58;;;;;;;0.65;0.65;;;;;;;12.82;61.62;100248.66;6366811;23;20101;-82
2023/04/22 00:06:28;;;;;;;0.32;0.32;;;;;;;12.81;61.93;100246.94;6367207;23;20581;-83
2023/04/22 00:08:59;;;;;;;0.35;0.35;;;;;;;12.76;61.86;100235.78;6391574;23;20369;-82
2023/04/22 00:11:29;;;;;;;0.43;0.43;;;;;;;12.72;62.32;100242.06;6366642;23;20017;-81
2023/04/22 00:14:00;;;;;;;0.30;0.30;;;;;;;12.64;62.15;100242.44;6399107;23;20088;-82
2023/04/22 00:16:30;;;;;;;0.20;0.20;;;;;;;12.61;61.84;100239.91;6367322;23;20089;-81
2023/04/22 00:19:04;;;;;;;0.88;0.88;;;;;;;12.63;62.23;100240.72;6367082;23;20017;-82
2023/04/22 00:21:37;;;;;;;0.20;0.20;;;;;;;12.63;62.09;100239.84;6364633;23;20024;-81
2023/04/22 00:24:07;;;;;;;0.20;0.20;;;;;;;12.57;62.01;100236.56;6365572;23;20013;-82
2023/04/22 00:26:38;;;;;;;0.57;0.57;;;;;;;12.56;62.23;100240.09;6366561;23;20410;-82
2023/04/22 00:29:08;;;;;;;0.45;0.45;;;;;;;12.51;62.59;100236.84;6365512;23;20016;-82
2023/04/22 00:31:39;;;;;;;0.45;0.45;;;;;;;12.53;62.29;100234.13;6366340;23;20069;-82
2023/04/22 00:34:09;;;;;;;0.80;0.80;;;;;;;12.54;62.53;100236.69;6399873;23;20021;-82
2023/04/22 00:36:40;;;;;;;0.30;0.30;;;;;;;12.54;62.70;100236.69;6400390;23;20011;-82
2023/04/22 00:39:11;;;;;;;0.25;0.25;;;;;;;12.56;62.72;100236.63;6396519;23;20017;-82
2023/04/22 00:41:42;;;;;;;0.40;0.40;;;;;;;12.55;62.53;100230.50;6343090;23;20005;-83
2023/04/22 00:44:12;;;;;;;0.40;0.40;;;;;;;12.50;62.57;100235.13;6369462;23;20013;-83
2023/04/22 00:46:44;;;;;;;0.47;0.47;;;;;;;12.48;62.35;100234.31;6369797;23;20013;-81
2023/04/22 00:49:15;;;;;;;0.70;0.70;;;;;;;12.51;62.62;100234.19;6345165;23;20017;-82
2023/04/22 00:51:46;;;;;;;0.40;0.40;;;;;;;12.50;62.85;100234.25;6405384;23;20465;-83
2023/04/22 00:54:16;;;;;;;0.50;0.50;;;;;;;12.48;62.79;100239.59;6369951;23;20021;-83
2023/04/22 00:56:47;;;;;;;0.20;0.20;;;;;;;12.47;63.36;100229.97;6405714;23;20705;-81
2023/04/22 00:59:18;;;;;;;0.95;0.93;;;;;;;12.38;62.88;100225.09;6369096;23;20021;-82
2023/04/22 01:01:50;;;;;;;1.05;0.98;;;;;;;12.36;62.63;100226.94;6371724;23;20720;-81
2023/04/22 01:04:20;;;;;;;0.90;0.90;;;;;;;12.36;62.92;100232.19;6395771;23;20020;-84
2023/04/22 01:06:52;;;;;;;0.50;0.50;;;;;;;12.35;62.98;100234.00;6394620;23;20000;-84
2023/04/22 01:09:23;;;;;;;0.95;0.95;;;;;;;12.32;63.30;100233.25;6426426;23;20001;-84
2023/04/22 01:11:55;;;;;;;0.30;0.30;;;;;;;12.32;62.88;100235.91;6420706;23;20043;-83
2023/04/22 01:14:25;;;;;;;0.50;0.50;;;;;;;12.28;63.06;100229.91;6422337;23;19994;-83
2023/04/22 01:16:56;;;;;;;0.50;0.50;;;;;;;12.25;63.44;100228.25;6398270;23;20004;-84
2023/04/22 01:19:28;;;;;;;0.40;0.40;;;;;;;12.28;63.25;100229.91;6389090;23;20033;-82
2023/04/22 01:22:00;;;;;;;0.95;0.95;;;;;;;12.26;63.02;100224.72;6387145;23;19993;-82
2023/04/22 01:24:32;;;;;;;0.35;0.35;;;;;;;12.25;63.07;100236.16;6395679;23;20013;-81
2023/04/22 01:27:03;;;;;;;0.60;0.60;;;;;;;12.24;63.20;100231.81;6396355;23;20009;-81
2023/04/22 01:29:35;;;;;;;0.75;0.75;;;;;;;12.24;63.37;100237.06;6424552;23;20036;-80
2023/04/22 01:32:06;;;;;;;0.93;0.88;;;;;;;12.25;63.73;100230.91;6395137;23;20056;-80
2023/04/22 01:34:36;;;;;;;0.45;0.45;;;;;;;12.28;63.57;100236.00;6393711;23;20020;-82
2023/04/22 01:37:07;;;;;;;0.20;0.20;;;;;;;12.28;63.99;100236.00;6413090;23;20015;-81
2023/04/22 01:39:38;;;;;;;0.40;0.40;;;;;;;12.29;63.77;100236.88;6391436;23;20107;-81
2023/04/22 01:42:09;;;;;;;0.47;0.47;;;;;;;12.28;63.67;100235.16;6365909;23;20001;-81
2023/04/22 01:44:40;;;;;;;0.93;0.88;;;;;;;12.27;63.77;100239.56;6393394;23;20017;-81
2023/04/22 01:47:12;;;;;;;0.75;0.75;;;;;;;12.28;63.70;100233.38;6367272;23;20106;-80
2023/04/22 01:49:42;;;;;;;6.93;1.13;;;;;;;12.25;63.97;100237.91;6340630;23;20031;-80
2023/04/22 01:52:13;;;;;;;0.60;0.60;;;;;;;12.29;64.02;100239.50;6401139;23;20008;-81
2023/04/22 01:54:43;;;;;;;0.63;0.63;;;;;;;12.22;64.30;100232.81;6364098;23;20500;-81
2023/04/22 01:57:15;;;;;;;0.32;0.32;;;;;;;12.20;63.69;100237.25;6368215;23;20068;-80
2023/04/22 01:59:45;;;;;;;0.20;0.20;;;;;;;12.20;63.64;100243.38;6340079;23;20029;-81
2023/04/22 02:02:16;;;;;;;0.60;0.60;;;;;;;12.20;63.95;100243.38;6390429;23;20326;-81
2023/04/22 02:04:46;;;;;;;0.82;0.77;;;;;;;12.18;63.80;100236.47;6393091;23;20148;-82
2023/04/22 02:07:17;;;;;;;1.50;1.00;;;;;;;12.16;64.12;100233.03;6366981;23;20171;-80
2023/04/22 02:09:49;;;;;;;2.42;2.25;;;;;;;12.14;63.80;100227.84;6363442;23;20021;-80
2023/04/22 02:12:19;;;;;;;0.52;0.52;;;;;;;12.13;64.04;100226.13;6375990;23;20009;-81
2023/04/22 02:14:50;;;;;;;0.40;0.40;;;;;;;12.11;63.84;100220.06;6391222;23;20087;-81
2023/04/22 02:17:21;;;;;;;0.40;0.40;;;;;;;12.07;63.83;100218.50;6390808;23;20016;-80
2023/04/22 02:19:51;;;;;;;0.68;0.68;;;;;;;12.09;63.64;100219.31;6365279;23;20476;-80
2023/04/22 02:22:22;;;;;;;1.38;1.27;;;;;;;12.06;63.91;100214.16;6401559;23;20008;-82
2023/04/22 02:24:53;;;;;;;1.05;0.95;;;;;;;12.06;63.68;100214.16;6365425;23;20032;-81
2023/04/22 02:27:23;;;;;;;0.52;0.52;;;;;;;12.06;63.92;100219.41;6402213;23;20009;-80
2023/04/22 02:29:54;;;;;;;1.35;1.00;;;;;;;12.04;63.83;100208.97;6368837;23;20017;-81
2023/04/22 02:32:24;;;;;;;0.57;0.57;;;;;;;12.04;63.88;100208.09;6366677;23;20019;-79
2023/04/22 02:34:55;;;;;;;0.50;0.50;;;;;;;12.05;64.26;100217.72;6338446;23;20021;-81
2023/04/22 02:37:25;;;;;;;0.60;0.60;;;;;;;12.05;64.38;100208.06;6377128;23;20427;-80
2023/04/22 02:39:56;;;;;;;1.15;1.08;;;;;;;12.00;63.87;100214.41;6363919;23;20013;-81
2023/04/22 02:42:26;;;;;;;0.65;0.65;;;;;;;12.00;64.21;100209.16;6401820;23;20256;-82
2023/04/22 02:44:57;;;;;;;1.08;1.08;;;;;;;12.00;63.95;100219.69;6364870;23;20009;-80
2023/04/22 02:47:27;;;;;;;0.88;0.77;;;;;;;11.98;64.15;100198.72;6402165;23;20039;-81
2023/04/22 02:49:57;;;;;;;0.70;0.70;;;;;;;11.97;64.26;100204.91;6364550;23;20059;-81
2023/04/22 02:52:28;;;;;;;1.15;1.05;;;;;;;11.98;64.05;100198.72;6365974;23;20024;-80
2023/04/22 02:54:59;;;;;;;0.75;0.75;;;;;;;11.95;63.98;100196.19;6340689;23;20017;-80
2023/04/22 02:57:29;;;;;;;1.42;1.17;;;;;;;11.94;64.44;100191.84;6401457;23;20333;-81
2023/04/22 03:00:03;;;;;;;1.73;1.63;;;;;;;11.92;64.39;100181.38;6388040;23;20032;-81
2023/04/22 03:02:34;;;;;;;0.45;0.43;;;;;;;11.92;64.50;100178.75;6364935;23;20020;-80
2023/04/22 03:05:04;;;;;;;3.83;1.70;;;;;;;11.95;64.33;100186.50;6363509;23;20461;-81
2023/04/22 03:07:35;;;;;;;1.02;1.02;;;;;;;11.94;64.69;100174.28;6366562;23;20005;-81
2023/04/22 03:10:06;;;;;;;1.10;1.05;;;;;;;11.93;64.69;100167.31;6362777;23;20015;-80
2023/04/22 03:12:37;;;;;;;2.65;1.75;;;;;;;11.89;65.40;100175.41;6366164;23;20009;-80
2023/04/22 03:15:08;;;;;;;3.92;1.58;;;;;;;11.88;65.17;100179.78;6366576;23;20039;-81
2023/04/22 03:17:38;;;;;;;0.80;0.77;;;;;;;11.87;65.28;100172.81;6391375;23;20024;-81
2023/04/22 03:20:10;;;;;;;0.63;0.63;;;;;;;11.89;64.75;100171.00;6363555;23;20017;-80
2023/04/22 03:22:40;;;;;;;2.03;1.83;;;;;;;11.90;65.45;100170.06;6341057;23;20661;-80
2023/04/22 03:25:11;;;;;;;2.50;2.03;;;;;;;11.89;64.71;100165.72;6363815;23;20058;-80
2023/04/22 03:27:41;;;;;;;1.10;1.08;;;;;;;11.89;64.91;100164.88;6390668;23;20064;-80
2023/04/22 03:30:12;;;;;;;1.38;1.27;;;;;;;11.88;64.95;100165.81;6387620;23;20730;-81
2023/04/22 03:32:43;;;;;;;1.05;1.05;;;;;;;11.89;64.30;100171.00;6363475;23;20460;-80
2023/04/22 03:35:13;;;;;;;1.88;1.73;;;;;;;11.87;65.41;100170.19;6338768;23;20044;-80
2023/04/22 03:37:44;;;;;;;1.17;1.13;;;;;;;11.88;65.29;100163.19;6365620;23;20369;-81
2023/04/22 03:40:14;;;;;;;0.80;0.80;;;;;;;11.81;66.10;100162.56;6366159;23;20067;-81
2023/04/22 03:42:45;;;;;;;0.95;0.95;;;;;;;11.84;65.00;100162.44;6365077;23;20012;-81
2023/04/22 03:45:15;;;;;;;0.68;0.68;;;;;;;11.82;65.29;100164.28;6362904;23;20136;-80
2023/04/22 03:47:46;;;;;;;1.77;1.67;;;;;;;11.83;65.96;100155.47;6365388;23;20005;-80
2023/04/22 03:50:16;;;;;;;1.55;1.42;;;;;;;11.86;64.96;100152.69;6365346;23;20393;-81
2023/04/22 03:52:47;;;;;;;1.90;1.67;;;;;;;11.84;65.38;100151.94;6400522;23;20688;-80
2023/04/22 03:55:17;;;;;;;1.83;1.73;;;;;;;11.86;65.57;100150.06;6389811;23;20021;-81
2023/04/22 03:57:48;;;;;;;0.95;0.93;;;;;;;11.87;64.82;100146.53;6390482;23;20013;-81
2023/04/22 04:00:18;;;;;;;0.35;0.35;;;;;;;11.84;65.81;100136.16;6363068;23;20013;-80
2023/04/22 04:02:49;;;;;;;1.85;1.48;;;;;;;11.82;65.46;100128.31;6363898;23;20009;-81
2023/04/22 04:05:19;;;;;;;1.55;1.45;;;;;;;11.82;65.50;100130.09;6339018;23;20198;-81
2023/04/22 04:07:50;;;;;;;2.40;1.52;;;;;;;11.82;65.53;100124.84;6365174;23;20009;-81
2023/04/22 04:10:20;;;;;;;0.98;0.98;;;;;;;11.83;65.45;100121.31;6376820;23;21061;-81
2023/04/22 04:12:51;;;;;;;1.58;0.93;;;;;;;11.73;67.99;100118.22;6399029;23;20365;-80
2023/04/22 04:15:21;;;;;;;1.08;1.08;;;;;;;11.74;65.79;100121.69;6362828;23;20161;-81
2023/04/22 04:17:52;;;;;;;0.43;0.43;;;;;;;11.77;66.29;100129.47;6402863;23;20011;-80
2023/04/22 04:20:22;;;;;;;0.75;0.75;;;;;;;11.77;65.86;100126.81;6365333;23;20019;-81
2023/04/22 04:22:53;;;;;;;2.50;1.67;;;;;;;11.75;66.38;100126.88;6392772;23;20408;-80
2023/04/22 04:25:23;;;;;;;0.82;0.80;;;;;;;11.76;66.18;100119.84;6366316;23;20218;-80
2023/04/22 04:27:54;;;;;;;1.50;1.40;;;;;;;11.77;65.96;100125.03;6403078;23;20012;-81
2023/04/22 04:30:24;;;;;;;0.82;0.82;;;;;;;11.78;66.02;100128.50;6389734;23;20059;-81
2023/04/22 04:32:56;;;;;;;1.08;1.02;;;;;;;11.77;65.83;100134.72;6366885;23;20322;-80
2023/04/22 04:35:27;;;;;;;0.70;0.70;;;;;;;11.74;66.32;100140.09;6366236;23;20021;-80
2023/04/22 04:37:58;;;;;;;0.93;0.93;;;;;;;11.74;66.45;100127.78;6366442;23;20957;-80
2023/04/22 04:40:29;;;;;;;0.77;0.77;;;;;;;11.73;66.46;100122.59;6390086;23;20068;-79
2023/04/22 04:43:01;;;;;;;1.30;1.20;;;;;;;11.67;68.18;100113.19;6375403;23;20012;-80
2023/04/22 04:45:31;;;;;;;0.40;0.40;;;;;;;11.69;67.21;100118.41;6388519;23;20603;-80
2023/04/22 04:48:02;;;;;;;0.77;0.77;;;;;;;11.65;67.45;100129.03;6400136;23;20084;-80
2023/04/22 04:50:32;;;;;;;0.63;0.63;;;;;;;11.68;67.01;100116.69;6362824;23;20345;-80
2023/04/22 04:53:03;;;;;;;0.40;0.40;;;;;;;11.74;66.52;100117.28;6363589;23;20007;-80
2023/04/22 04:55:33;;;;;;;0.63;0.63;;;;;;;11.73;66.93;100112.09;6363789;23;20020;-80
2023/04/22 04:58:04;;;;;;;0.60;0.60;;;;;;;11.74;66.88;100104.13;6400182;23;20020;-80
2023/04/22 05:00:34;;;;;;;0.47;0.47;;;;;;;11.74;66.87;100098.88;6388801;23;20350;-80
2023/04/22 05:03:05;;;;;;;0.73;0.73;;;;;;;11.68;70.26;100088.63;6387806;23;20013;-79
2023/04/22 05:05:35;;;;;;;0.52;0.52;;;;;;;11.72;67.73;100095.47;6364574;23;20442;-80
2023/04/22 05:08:06;;;;;;;1.77;1.67;;;;;;;11.61;69.71;100095.06;6365578;23;20373;-80
2023/04/22 05:10:36;;;;;;;0.30;0.30;;;;;;;11.67;68.85;100104.47;6388011;23;20028;-82
2023/04/22 05:13:07;;;;;;;0.40;0.40;;;;;;;11.70;68.69;100104.31;6364397;23;20533;-82
2023/04/22 05:15:37;;;;;;;0.40;0.40;;;;;;;11.68;69.48;100107.03;6365260;23;20499;-82
2023/04/22 05:18:08;;;;;;;0.47;0.47;;;;;;;11.68;69.34;100098.28;6390564;23;20013;-82
2023/04/22 05:20:38;;;;;;;1.10;0.77;;;;;;;11.75;68.54;100099.75;6367221;23;20017;-82
2023/04/22 05:23:09;;;;;;;0.85;0.82;;;;;;;11.72;69.66;100100.72;6372114;23;20099;-82
2023/04/22 05:25:39;;;;;;;0.80;0.70;;;;;;;11.72;70.60;100102.50;6367773;23;20020;-82
2023/04/22 05:28:10;;;;;;;0.50;0.50;;;;;;;11.78;69.57;100113.63;6393484;23;20349;-82
2023/04/22 05:30:40;;;;;;;0.50;0.50;;;;;;;11.77;71.69;100108.44;6391023;23;20036;-82
2023/04/22 05:33:10;;;;;;;0.73;0.73;;;;;;;11.85;68.96;100116.84;6367115;23;20409;-82
2023/04/22 05:35:41;;;;;;;0.90;0.90;;;;;;;11.78;69.96;100115.38;6391910;23;20017;-82
2023/04/22 05:38:11;;;;;;;0.35;0.35;;;;;;;11.86;69.22;100107.19;6368086;23;20016;-84
2023/04/22 05:40:42;;;;;;;0.30;0.30;;;;;;;11.84;69.85;100119.53;6367742;23;20021;-82
2023/04/22 05:43:12;;;;;;;0.68;0.65;;;;;;;11.88;69.81;100115.84;6405028;22;20664;-82
2023/04/22 05:45:43;;;;;;;0.65;0.50;;;;;;;11.89;69.50;100113.16;6369002;23;20013;-82
2023/04/22 05:48:13;;;;;;;0.55;0.55;;;;;;;11.95;68.71;100114.69;6368875;23;20396;-81
2023/04/22 05:50:44;;;;;;;2.10;1.95;;;;;;;12.01;68.35;100109.19;6363603;23;20017;-82
2023/04/22 05:53:14;;;;;;;1.55;0.95;;;;;;;12.02;68.59;100116.16;6388832;23;20356;-82
2023/04/22 05:55:45;;;;;;;0.32;0.32;;;;;;;12.04;68.40;100116.06;6391619;23;20048;-82
2023/04/22 05:58:15;;;;;;;0.88;0.88;;;;;;;12.08;69.16;100112.41;6374054;23;20015;-82
2023/04/22 06:00:46;;;;;;;0.30;0.30;;;;;;;12.06;69.45;100107.22;6359298;23;20071;-82
2023/04/22 06:03:16;;;;;;;0.47;0.47;;;;;;;12.14;68.39;100108.66;6363350;23;20009;-82
2023/04/22 06:05:47;;;;;;;0.98;0.90;;;;;;;12.13;68.82;100107.78;6362288;23;20036;-82
2023/04/22 06:08:18;;;;;;;1.45;0.60;;;;;;;12.15;68.93;100116.47;6398117;23;20221;-82
2023/04/22 06:10:49;;;;;;;8.50;0.77;;;;;;;12.14;69.27;100112.13;6388661;23;20361;-82
2023/04/22 06:13:19;;;;;;;0.68;0.68;;;;;;;12.16;70.06;100110.31;6363627;23;20012;-82
2023/04/22 06:15:49;;;;;;;1.10;1.10;;;;;;;12.21;69.95;100097.78;6387255;23;20528;-83
2023/04/22 06:18:20;;;;;;;0.63;0.63;;;;;;;12.27;69.78;100102.78;6400356;23;20005;-83
2023/04/22 06:20:51;;;;;;;1.23;1.13;;;;;;;12.28;69.76;100108.91;6387384;23;20028;-83
2023/04/22 06:23:21;;;;;;;0.73;0.73;;;;;;;12.31;70.89;100105.28;6363007;23;20001;-82
2023/04/22 06:25:52;;;;;;;0.70;0.70;;;;;;;12.45;70.45;100097.63;6392578;23;20032;-83
2023/04/22 06:28:23;;;;;;;0.50;0.50;;;;;;;12.50;69.54;100100.91;6382604;23;20020;-83
2023/04/22 06:30:53;;;;;;;0.50;0.50;;;;;;;12.58;69.43;100104.06;6392727;23;20048;-83
2023/04/22 06:33:23;;;;;;;0.35;0.35;;;;;;;12.58;69.04;100101.44;6401081;23;20015;-82
2023/04/22 06:35:54;;;;;;;0.43;0.43;;;;;;;12.53;70.53;100097.28;6366802;23;20021;-82
2023/04/22 06:38:25;;;;;;;0.43;0.43;;;;;;;12.62;69.68;100103.91;6388167;23;20079;-83
2023/04/22 06:40:55;;;;;;;0.47;0.47;;;;;;;12.47;72.00;100095.78;6361955;23;20448;-81
2023/04/22 06:43:26;;;;;;;13.27;2.67;;;;;;;12.57;70.08;100099.72;6373087;23;20001;-81
2023/04/22 06:45:56;;;;;;;1.08;1.05;;;;;;;12.63;70.70;100095.09;6392982;23;20028;-81
2023/04/22 06:48:27;;;;;;;1.35;1.25;;;;;;;12.69;70.08;100100.06;6364971;23;20012;-81
2023/04/22 06:50:57;;;;;;;0.40;0.40;;;;;;;12.76;68.99;100104.16;6387887;23;20013;-81
2023/04/22 06:53:28;;;;;;;0.30;0.30;;;;;;;12.76;70.16;100093.63;6363783;23;20021;-81
2023/04/22 06:55:58;;;;;;;0.50;0.50;;;;;;;12.80;69.41;100097.81;6392756;23;20277;-83
2023/04/22 06:58:29;;;;;;;1.38;0.73;;;;;;;12.77;72.34;100102.34;6406895;23;20009;-83
2023/04/22 07:00:59;;;;;;;3.45;2.47;;;;;;;12.66;74.49;100103.69;6394400;23;20659;-83
2023/04/22 07:03:29;;;;;;;0.90;0.90;;;;;;;12.77;71.14;100110.25;6403533;23;20019;-84
2023/04/22 07:06:00;;;;;;;0.57;0.57;;;;;;;12.88;70.29;100100.09;6375490;23;20193;-83
2023/04/22 07:08:30;;;;;;;0.30;0.30;;;;;;;12.91;70.46;100103.44;6409751;23;20012;-83
2023/04/22 07:11:01;;;;;;;3.97;1.08;;;;;;;12.87;71.26;100093.94;6399008;23;20023;-83
2023/04/22 07:13:34;;;;;;;0.50;0.50;;;;;;;12.98;70.61;100092.59;6372704;23;20099;-83
2023/04/22 07:16:05;;;;;;;0.30;0.30;;;;;;;12.91;71.99;100092.03;6411086;23;20020;-83
2023/04/22 07:18:35;;;;;;;0.43;0.43;;;;;;;12.98;72.86;100087.34;6377870;23;20067;-83
2023/04/22 07:21:06;;;;;;;0.60;0.55;;;;;;;13.06;72.04;100087.81;6373027;23;20020;-84
2023/04/22 07:23:36;;;;;;;0.55;0.55;;;;;;;13.06;74.13;100085.19;6395996;23;20068;-82
2023/04/22 07:26:09;;;;;;;0.60;0.60;;;;;;;13.07;72.02;100076.38;6391072;23;20362;-83
2023/04/22 07:28:40;;;;;;;0.30;0.30;;;;;;;13.10;73.54;100072.72;6342484;23;20171;-85
2023/04/22 07:31:20;;;;;;;0.30;0.30;;;;;;;13.13;72.47;100075.22;6365400;23;20101;-85
2023/04/22 07:33:51;;;;;;;0.45;0.45;;;;;;;13.17;72.74;100072.38;6365708;23;20100;-82
2023/04/22 07:36:21;;;;;;;0.65;0.65;;;;;;;13.15;72.83;100068.94;6367038;23;20099;-82
2023/04/22 07:38:55;;;;;;;0.40;0.40;;;;;;;13.31;71.79;100052.41;6360465;23;20509;-83
2023/04/22 07:41:25;;;;;;;0.20;0.20;;;;;;;13.27;72.54;100053.47;6390066;23;20025;-83
2023/04/22 07:43:56;;;;;;;0.65;0.57;;;;;;;13.35;72.59;100049.53;6366479;23;20013;-83
2023/04/22 07:46:26;;;;;;;0.50;0.50;;;;;;;13.33;71.23;100045.28;6392049;23;20020;-81
2023/04/22 07:48:57;;;;;;;0.38;0.38;;;;;;;13.36;70.87;100051.25;6364920;23;20048;-82
2023/04/22 07:51:27;;;;;;;0.25;0.25;;;;;;;13.39;71.29;100050.28;6364022;23;20029;-81
2023/04/22 07:53:58;;;;;;;0.40;0.40;;;;;;;13.43;72.21;100059.72;6390145;23;20025;-82
2023/04/22 07:56:28;;;;;;;0.25;0.25;;;;;;;13.50;71.26;100062.91;6366751;23;20013;-82
2023/04/22 07:58:59;;;;;;;0.43;0.43;;;;;;;13.56;71.36;100061.75;6373235;23;20020;-82
2023/04/22 08:01:29;;;;;;;0.38;0.38;;;;;;;13.61;71.41;100057.97;6366023;23;20082;-82
2023/04/22 08:04:00;;;;;;;0.57;0.57;;;;;;;13.66;71.11;100055.09;6375114;23;20028;-82
2023/04/22 08:06:30;;;;;;;0.80;0.50;;;;;;;13.76;70.97;100052.84;6368270;23;20480;-82
2023/04/22 08:09:01;;;;;;;0.45;0.45;;;;;;;13.76;71.46;100047.56;6392366;23;20532;-82
2023/04/22 08:11:31;;;;;;;0.47;0.47;;;;;;;13.87;70.23;100039.09;6364459;23;20021;-82
2023/04/22 08:14:02;;;;;;;0.43;0.43;;;;;;;13.89;69.81;100037.22;6365645;23;20033;-82
2023/04/22 08:16:32;;;;;;;0.30;0.30;;;;;;;13.91;70.41;100020.41;6363129;23;20024;-82
2023/04/22 08:19:03;;;;;;;0.30;0.30;;;;;;;13.96;71.15;100020.16;6370755;23;20021;-82
2023/04/22 08:21:36;;;;;;;0.38;0.38;;;;;;;14.06;70.85;100029.28;6365243;23;20009;-82
2023/04/22 08:24:06;;;;;;;0.55;0.55;;;;;;;14.15;70.84;100035.84;6365114;23;20009;-82
2023/04/22 08:26:38;;;;;;;2.00;0.85;;;;;;;14.17;70.51;100034.84;6365946;23;20093;-82
2023/04/22 08:29:09;;;;;;;0.60;0.60;;;;;;;14.23;69.13;100035.47;6395660;23;20024;-82
2023/04/22 08:31:41;;;;;;;0.20;0.20;;;;;;;14.39;68.87;100031.06;6386807;23;20104;-82
2023/04/22 08:34:11;;;;;;;0.20;0.20;;;;;;;14.35;69.10;100031.31;6364972;23;20032;-83
2023/04/22 08:36:42;;;;;;;0.40;0.40;;;;;;;14.41;68.85;100034.47;6364965;23;20405;-82
2023/04/22 08:39:12;;;;;;;0.30;0.30;;;;;;;14.43;68.20;100021.19;6360350;23;20025;-82
2023/04/22 08:41:44;;;;;;;0.32;0.32;;;;;;;14.47;67.53;100028.00;6388948;23;20001;-81
2023/04/22 08:44:16;;;;;;;0.30;0.30;;;;;;;14.56;67.31;100016.94;6396939;23;20095;-81
2023/04/22 08:46:48;;;;;;;0.30;0.30;;;;;;;14.56;67.76;100016.94;6406983;23;20028;-82
2023/04/22 08:49:18;;;;;;;0.20;0.20;;;;;;;14.60;68.69;100018.50;6373703;23;20021;-82
2023/04/22 08:51:49;;;;;;;0.43;0.43;;;;;;;14.70;67.69;100021.50;6372311;23;20448;-82
2023/04/22 08:54:20;;;;;;;0.30;0.30;;;;;;;14.75;67.35;100022.06;6361986;23;20898;-82
2023/04/22 08:56:51;;;;;;;0.43;0.43;;;;;;;14.81;68.26;100017.41;6363146;23;20092;-82
2023/04/22 08:59:21;;;;;;;0.30;0.30;;;;;;;14.83;68.45;100007.63;6362523;23;20343;-82
2023/04/22 09:01:54;;;;;;;0.50;0.50;;;;;;;15.01;68.46;100005.72;6361712;23;20008;-81
2023/04/22 09:04:24;;;;;;;0.20;0.20;;;;;;;15.03;67.66;99999.41;6395077;23;20048;-82
2023/04/22 09:06:55;;;;;;;0.30;0.30;;;;;;;15.19;66.78;100006.44;6342849;23;20020;-82
2023/04/22 09:09:29;;;;;;;1.10;0.75;;;;;;;15.19;64.90;100001.16;6373114;23;20074;-81
2023/04/22 09:12:00;;;;;;;0.80;0.75;;;;;;;15.26;64.37;100002.50;6370281;23;20382;-81
2023/04/22 09:14:32;;;;;;;0.30;0.30;;;;;;;15.27;64.70;100006.84;6368093;23;20057;-81
2023/04/22 09:17:02;;;;;;;0.50;0.50;;;;;;;15.38;64.83;100004.44;6405456;23;20019;-81
2023/04/22 09:19:33;;;;;;;1.08;0.47;;;;;;;15.39;63.67;100002.63;6367862;23;20096;-82
2023/04/22 09:22:03;;;;;;;1.00;0.95;;;;;;;15.42;63.63;99999.81;6368197;23;20350;-81
2023/04/22 09:24:34;;;;;;;0.50;0.50;;;;;;;15.40;64.16;99997.28;6373705;23;20139;-81
2023/04/22 09:27:05;;;;;;;1.50;1.25;;;;;;;15.60;64.19;99987.28;6379448;23;20013;-81
2023/04/22 09:29:35;;;;;;;0.47;0.47;;;;;;;15.62;63.09;99985.41;6392604;23;20338;-82
2023/04/22 09:32:12;;;;;;;0.22;0.22;;;;;;;15.64;63.09;99987.97;6366930;23;20073;-81
2023/04/22 09:34:51;;;;;;;0.30;0.30;;;;;;;15.69;62.20;99991.19;6368032;23;20020;-82
2023/04/22 09:37:25;;;;;;;0.52;0.30;;;;;;;15.83;61.95;99985.94;6345310;23;20013;-82
2023/04/22 09:39:55;;;;;;;0.52;0.52;;;;;;;15.88;62.17;99977.72;6396397;23;20017;-82
2023/04/22 09:42:26;;;;;;;0.20;0.20;;;;;;;15.95;61.89;99980.88;6369160;23;20051;-81
2023/04/22 09:44:57;;;;;;;0.20;0.20;;;;;;;15.94;62.85;99973.88;6368691;23;20017;-81
2023/04/22 09:47:35;;;;;;;0.20;0.20;;;;;;;16.09;63.38;99978.19;6394426;23;20669;-81
2023/04/22 09:50:06;;;;;;;0.30;0.30;;;;;;;16.16;63.41;99973.34;6367099;23;20033;-81
2023/04/22 09:52:36;;;;;;;0.40;0.40;;;;;;;16.22;63.56;99983.59;6378688;23;20009;-81
2023/04/22 09:55:08;;;;;;;0.40;0.40;;;;;;;16.39;62.41;99984.31;6367813;23;20013;-81
2023/04/22 09:57:38;;;;;;;0.35;0.35;;;;;;;16.40;62.23;99983.38;6369927;23;20067;-82
2023/04/22 10:00:12;;;;;;;0.30;0.30;;;;;;;16.47;62.60;99997.91;6405643;23;20099;-81
2023/04/22 10:02:43;;;;;;;1.15;0.98;;;;;;;16.52;62.56;99996.69;6372218;23;20008;-81
2023/04/22 10:05:13;;;;;;;0.20;0.20;;;;;;;16.59;62.11;99997.13;6368829;23;20013;-81
2023/04/22 10:07:44;;;;;;;0.28;0.28;;;;;;;16.65;62.27;99993.25;6405175;23;20078;-81
2023/04/22 10:10:14;;;;;;;0.20;0.20;;;;;;;16.78;61.13;99995.94;6369639;23;20071;-81
2023/04/22 10:12:47;;;;;;;0.20;0.20;;;;;;;16.94;59.41;99996.69;6367434;23;20094;-81
2023/04/22 10:15:17;;;;;;;0.30;0.30;;;;;;;16.86;59.80;99995.47;6394104;23;20032;-81
2023/04/22 10:17:50;;;;;;;1.00;0.82;;;;;;;16.92;59.55;100003.84;6367685;23;20017;-81
2023/04/22 10:20:21;;;;;;;0.20;0.20;;;;;;;16.98;58.75;99997.34;6365804;23;20477;-81
2023/04/22 10:22:55;;;;;;;0.20;0.20;;;;;;;17.04;59.35;100004.03;6366422;23;20023;-81
2023/04/22 10:25:26;;;;;;;4.22;0.50;;;;;;;16.96;59.32;100004.53;6366200;23;20044;-81
2023/04/22 10:28:04;;;;;;;0.32;0.32;;;;;;;17.03;58.60;100003.16;6403333;23;20009;-81
2023/04/22 10:30:37;;;;;;;5.28;0.75;;;;;;;17.09;58.88;100008.09;6390449;23;20017;-81
2023/04/22 10:33:20;;;;;;;0.60;0.60;;;;;;;17.15;58.52;100004.16;6366972;23;20009;-81
2023/04/22 10:36:14;;;;;;;0.20;0.20;;;;;;;17.25;60.14;99996.47;6392096;23;20028;-81
2023/04/22 10:38:54;;;;;;;0.52;0.52;;;;;;;17.41;59.38;100012.19;6366534;23;20226;-81
2023/04/22 10:41:28;;;;;;;0.68;0.35;;;;;;;17.44;58.19;100009.34;6366334;23;20025;-81
2023/04/22 10:44:06;;;;;;;5.32;1.10;;;;;;;17.50;57.32;100005.44;6398444;23;20025;-81
2023/04/22 10:46:41;;;;;;;0.63;0.63;;;;;;;17.56;57.81;100011.16;6368285;23;20021;-81
2023/04/22 10:49:16;;;;;;;0.43;0.43;;;;;;;17.56;57.15;99997.88;6390969;23;20024;-82
2023/04/22 10:51:51;;;;;;;0.20;0.20;;;;;;;17.75;58.09;99993.97;6368563;23;20013;-81
2023/04/22 10:54:24;;;;;;;0.22;0.22;;;;;;;17.87;57.12;100011.72;6372934;23;20668;-81
2023/04/22 10:57:13;;;;;;;0.30;0.30;;;;;;;17.91;57.58;99999.09;6367504;23;20020;-81
2023/04/22 10:59:59;;;;;;;0.40;0.40;;;;;;;17.94;56.92;100002.38;6367568;23;20023;-81
2023/04/22 11:02:40;;;;;;;0.20;0.20;;;;;;;18.03;56.82;100008.88;6343300;23;20032;-81
2023/04/22 11:05:18;;;;;;;0.95;0.80;;;;;;;18.16;57.09;100003.53;6368122;23;20013;-81
2023/04/22 11:07:51;;;;;;;0.52;0.52;;;;;;;18.13;57.30;100001.13;6393602;23;20013;-81
2023/04/22 11:10:45;;;;;;;;;;;;;;;18.23;55.72;99996.00;6368552;23;20024;-81
2023/04/22 11:13:18;;;;;;;0.32;0.32;;;;;;;18.37;56.61;100000.34;6385142;23;19927;-81
2023/04/22 11:15:52;;;;;;;0.55;0.45;;;;;;;18.53;56.01;99995.63;6371529;23;20021;-81
2023/04/22 11:18:25;;;;;;;0.40;0.40;;;;;;;18.64;55.97;99989.53;6368966;23;20017;-81
2023/04/22 11:21:01;;;;;;;;;;;;;;;18.72;55.92;99991.59;6392693;23;20017;-82
2023/04/22 11:23:32;;;;;;;0.40;0.40;;;;;;;18.70;54.90;99982.94;6366934;23;19916;-82
2023/04/22 11:26:04;;;;;;;0.30;0.30;;;;;;;18.76;56.49;99990.44;6363988;23;20028;-82
2023/04/22 11:28:44;;;;;;;0.88;0.85;;;;;;;18.84;56.14;99988.06;6363854;23;20013;-82
2023/04/22 11:31:17;;;;;;;0.30;0.30;;;;;;;19.05;55.60;99982.16;6363289;23;20350;-84
2023/04/22 11:33:48;;;;;;;0.43;0.43;;;;;;;19.08;56.44;99968.63;6367707;23;20025;-84
2023/04/22 11:36:20;;;;;;;1.85;1.48;;;;;;;19.14;56.39;99975.31;6365937;23;20025;-83
2023/04/22 11:38:55;;;;;;;0.30;0.30;;;;;;;19.27;54.68;99975.22;6398186;23;20052;-84
2023/04/22 11:41:28;;;;;;;0.30;0.30;;;;;;;19.49;54.60;99975.28;6365196;23;20497;-83
2023/04/22 11:44:00;;;;;;;0.40;0.40;;;;;;;19.50;54.93;99976.97;6365550;23;20020;-83
2023/04/22 11:46:37;;;;;;;0.40;0.40;;;;;;;19.62;53.79;99985.00;6351921;23;20017;-83